createdAt,value
2018-08-11T00:00:54.928Z,99.90
2018-08-11T00:03:24.399Z,99.90
2018-08-11T00:05:53.832Z,99.90
2018-08-11T00:08:23.304Z,99.90
2018-08-11T00:10:52.829Z,99.90
2018-08-11T00:13:22.263Z,99.90
2018-08-11T00:15:51.669Z,99.90
2018-08-11T00:18:21.036Z,99.90
2018-08-11T00:20:50.557Z,99.90
2018-08-11T00:23:19.903Z,99.90
2018-08-11T00:25:49.376Z,99.90
2018-08-11T00:28:18.733Z,99.90
2018-08-11T00:30:48.170Z,99.90
2018-08-11T00:33:17.569Z,99.90
2018-08-11T00:35:47.471Z,99.90
2018-08-11T00:38:16.865Z,99.90
2018-08-11T00:40:46.620Z,99.90
2018-08-11T00:43:16.023Z,99.90
2018-08-11T00:45:45.405Z,99.90
2018-08-11T00:48:14.806Z,99.90
2018-08-11T00:50:44.191Z,99.90
2018-08-11T00:53:13.714Z,99.90
2018-08-11T00:55:43.049Z,99.90
2018-08-11T00:58:12.401Z,99.90
2018-08-11T01:00:41.792Z,99.90
2018-08-11T01:03:11.192Z,99.90
2018-08-11T01:05:40.593Z,99.90
2018-08-11T01:08:10.541Z,99.90
2018-08-11T01:10:39.910Z,99.90
2018-08-11T01:13:09.730Z,99.90
2018-08-11T01:15:39.092Z,99.90
2018-08-11T01:18:08.453Z,99.90
2018-08-11T01:20:37.837Z,99.90
2018-08-11T01:23:07.363Z,99.90
2018-08-11T01:25:36.769Z,99.90
2018-08-11T01:28:06.107Z,99.90
2018-08-11T01:30:35.561Z,99.90
2018-08-11T01:33:04.981Z,99.90
2018-08-11T01:35:34.352Z,99.90
2018-08-11T01:38:03.854Z,99.90
2018-08-11T01:40:33.391Z,99.90
2018-08-11T01:43:02.763Z,99.90
2018-08-11T01:45:32.144Z,99.90
2018-08-11T01:48:01.520Z,99.90
2018-08-11T01:50:30.936Z,99.90
2018-08-11T01:53:00.303Z,99.90
2018-08-11T01:55:29.693Z,99.90
2018-08-11T01:57:59.109Z,99.90
2018-08-11T02:00:28.560Z,99.90
2018-08-11T02:02:57.984Z,99.90
2018-08-11T02:05:27.417Z,99.90
2018-08-11T02:07:56.740Z,99.90
2018-08-11T02:10:26.224Z,99.90
2018-08-11T02:12:55.619Z,99.90
2018-08-11T02:15:25.081Z,99.90
2018-08-11T02:17:55.508Z,99.90
2018-08-11T02:20:25.974Z,99.90
2018-08-11T02:22:55.364Z,99.90
2018-08-11T02:25:24.792Z,99.90
2018-08-11T02:27:54.192Z,99.90
2018-08-11T02:30:23.604Z,99.90
2018-08-11T02:32:52.948Z,99.90
2018-08-11T02:35:22.302Z,99.90
2018-08-11T02:37:51.720Z,99.90
2018-08-11T02:40:21.232Z,99.90
2018-08-11T02:42:50.688Z,99.90
2018-08-11T02:45:20.086Z,99.90
2018-08-11T02:47:49.436Z,99.90
2018-08-11T02:50:19.217Z,99.90
2018-08-11T02:52:48.557Z,99.90
2018-08-11T02:55:17.881Z,99.90
2018-08-11T02:57:47.231Z,99.90
2018-08-11T03:00:16.726Z,99.90
2018-08-11T03:02:46.137Z,99.90
2018-08-11T03:05:15.467Z,99.90
2018-08-11T03:07:44.819Z,99.90
2018-08-11T03:10:14.320Z,99.90
2018-08-11T03:12:43.668Z,99.90
2018-08-11T03:15:13.560Z,99.90
2018-08-11T03:17:43.060Z,99.90
2018-08-11T03:20:14.333Z,99.90
2018-08-11T03:22:44.356Z,99.90
2018-08-11T03:25:13.731Z,99.90
2018-08-11T03:27:43.144Z,99.90
2018-08-11T03:30:12.749Z,99.90
2018-08-11T03:32:42.117Z,99.90
2018-08-11T03:35:11.560Z,99.90
2018-08-11T03:37:40.957Z,99.90
2018-08-11T03:40:11.505Z,99.90
2018-08-11T03:42:41.829Z,99.90
2018-08-11T03:45:11.522Z,99.90
2018-08-11T03:47:40.892Z,99.90
2018-08-11T03:50:10.497Z,99.90
2018-08-11T03:52:39.855Z,99.90
2018-08-11T03:55:09.253Z,99.90
2018-08-11T03:57:38.615Z,99.90
2018-08-11T04:00:10.621Z,99.90
2018-08-11T04:02:40.007Z,99.90
2018-08-11T04:05:09.403Z,99.90
2018-08-11T04:07:38.837Z,99.90
2018-08-11T04:10:08.384Z,99.90
2018-08-11T04:12:37.865Z,99.90
2018-08-11T04:15:07.425Z,99.90
2018-08-11T04:17:38.691Z,99.90
2018-08-11T04:20:09.836Z,99.90
2018-08-11T04:22:39.290Z,99.90
2018-08-11T04:25:09.140Z,99.90
2018-08-11T04:27:38.895Z,99.90
2018-08-11T04:30:10.005Z,99.90
2018-08-11T04:32:39.384Z,99.90
2018-08-11T04:35:08.839Z,99.90
2018-08-11T04:37:38.192Z,99.90
2018-08-11T04:40:07.616Z,99.90
2018-08-11T04:42:36.977Z,99.90
2018-08-11T04:45:07.447Z,99.90
2018-08-11T04:47:37.038Z,99.90
2018-08-11T04:50:07.102Z,99.90
2018-08-11T04:52:36.744Z,99.90
2018-08-11T04:55:06.672Z,99.90
2018-08-11T04:57:36.577Z,99.90
2018-08-11T05:00:08.001Z,99.90
2018-08-11T05:02:37.549Z,99.90
2018-08-11T05:05:07.846Z,99.90
2018-08-11T05:07:37.727Z,99.90
2018-08-11T05:10:09.025Z,99.90
2018-08-11T05:12:38.749Z,99.90
2018-08-11T05:15:09.150Z,99.90
2018-08-11T05:17:38.713Z,99.90
2018-08-11T05:20:08.896Z,99.90
2018-08-11T05:22:38.574Z,99.90
2018-08-11T05:25:08.283Z,99.90
2018-08-11T05:27:37.884Z,99.90
2018-08-11T05:30:08.260Z,99.90
2018-08-11T05:32:38.343Z,99.90
2018-08-11T05:35:07.861Z,99.90
2018-08-11T05:37:39.920Z,99.90
2018-08-11T05:40:09.545Z,99.90
2018-08-11T05:42:39.101Z,99.90
2018-08-11T05:45:08.732Z,99.90
2018-08-11T05:47:38.250Z,99.90
2018-08-11T05:50:08.004Z,99.90
2018-08-11T05:52:37.546Z,99.90
2018-08-11T05:55:13.770Z,99.90
2018-08-11T05:57:43.463Z,99.90
2018-08-11T06:00:13.202Z,99.90
2018-08-11T06:02:42.792Z,99.90
2018-08-11T06:05:12.362Z,99.90
2018-08-11T06:07:41.915Z,99.90
2018-08-11T06:10:11.557Z,99.90
2018-08-11T06:12:41.192Z,99.90
2018-08-11T06:15:10.811Z,99.90
2018-08-11T06:17:40.504Z,99.90
2018-08-11T06:20:10.924Z,99.90
2018-08-11T06:22:40.436Z,99.90
2018-08-11T06:25:11.274Z,99.90
2018-08-11T06:27:41.664Z,99.90
2018-08-11T06:30:11.775Z,99.90
2018-08-11T06:32:41.668Z,99.90
2018-08-11T06:35:11.203Z,99.90
2018-08-11T06:37:40.916Z,99.90
2018-08-11T06:40:10.584Z,99.90
2018-08-11T06:42:40.232Z,99.90
2018-08-11T06:45:09.997Z,99.90
2018-08-11T06:47:39.511Z,99.90
2018-08-11T06:50:09.296Z,99.90
2018-08-11T06:52:38.791Z,99.90
2018-08-11T06:55:08.396Z,99.90
2018-08-11T06:57:37.984Z,99.90
2018-08-11T07:00:07.814Z,99.90
2018-08-11T07:02:37.484Z,99.90
2018-08-11T07:05:07.510Z,99.90
2018-08-11T07:07:38.420Z,99.90
2018-08-11T07:10:08.141Z,99.90
2018-08-11T07:12:37.659Z,99.90
2018-08-11T07:15:07.417Z,99.90
2018-08-11T07:17:37.154Z,99.90
2018-08-11T07:20:06.895Z,99.90
2018-08-11T07:22:36.419Z,99.90
2018-08-11T07:25:06.650Z,99.90
2018-08-11T07:27:36.477Z,99.90
2018-08-11T07:30:06.612Z,99.90
2018-08-11T07:32:36.375Z,99.90
2018-08-11T07:35:06.157Z,99.90
2018-08-11T07:37:36.180Z,99.90
2018-08-11T07:40:07.088Z,99.90
2018-08-11T07:42:36.653Z,99.90
2018-08-11T07:45:06.865Z,99.90
2018-08-11T07:47:36.506Z,99.90
2018-08-11T07:50:06.693Z,99.90
2018-08-11T07:52:36.444Z,99.90
2018-08-11T07:55:06.180Z,99.90
2018-08-11T07:57:35.865Z,99.90
2018-08-11T08:00:08.968Z,99.90
2018-08-11T08:02:38.769Z,99.90
2018-08-11T08:05:08.764Z,99.90
2018-08-11T08:07:38.371Z,99.90
2018-08-11T08:10:08.968Z,99.90
2018-08-11T08:12:38.581Z,99.90
2018-08-11T08:15:08.207Z,99.90
2018-08-11T08:17:37.807Z,99.90
2018-08-11T08:20:07.441Z,99.90
2018-08-11T08:22:36.955Z,99.90
2018-08-11T08:25:07.309Z,99.90
2018-08-11T08:27:37.258Z,99.90
2018-08-11T08:30:09.644Z,98.80
2018-08-11T08:32:39.596Z,99.90
2018-08-11T08:35:09.477Z,99.90
2018-08-11T08:37:39.119Z,98.70
2018-08-11T08:40:09.139Z,98.40
2018-08-11T08:42:38.668Z,99.40
2018-08-11T08:45:10.143Z,97.90
2018-08-11T08:47:40.256Z,97.90
2018-08-11T08:50:09.974Z,98.00
2018-08-11T08:52:39.488Z,98.70
2018-08-11T08:55:09.085Z,97.40
2018-08-11T08:57:38.724Z,98.70
2018-08-11T09:00:08.502Z,98.10
2018-08-11T09:02:38.223Z,96.40
2018-08-11T09:05:07.945Z,97.80
2018-08-11T09:07:37.562Z,95.80
2018-08-11T09:10:07.348Z,95.90
2018-08-11T09:12:37.098Z,95.00
2018-08-11T09:15:07.389Z,95.80
2018-08-11T09:17:37.050Z,94.60
2018-08-11T09:20:07.361Z,94.60
2018-08-11T09:22:37.067Z,95.50
2018-08-11T09:25:06.729Z,95.90
2018-08-11T09:27:36.356Z,94.70
2018-08-11T09:30:07.177Z,94.50
2018-08-11T09:32:36.717Z,90.80
2018-08-11T09:35:07.264Z,92.00
2018-08-11T09:37:36.916Z,92.00
2018-08-11T09:40:07.088Z,92.10
2018-08-11T09:42:36.613Z,90.70
2018-08-11T09:45:06.496Z,85.90
2018-08-11T09:47:36.229Z,89.00
2018-08-11T09:50:05.918Z,90.10
2018-08-11T09:52:35.513Z,88.10
2018-08-11T09:55:05.154Z,81.60
2018-08-11T09:57:35.376Z,82.10
2018-08-11T10:00:06.552Z,89.10
2018-08-11T10:02:36.264Z,80.40
2018-08-11T10:05:07.851Z,80.00
2018-08-11T10:07:37.496Z,80.80
2018-08-11T10:10:07.152Z,83.90
2018-08-11T10:12:36.971Z,73.30
2018-08-11T10:15:06.646Z,74.80
2018-08-11T10:17:36.657Z,77.20
2018-08-11T10:20:06.443Z,79.40
2018-08-11T10:22:36.012Z,81.20
2018-08-11T10:25:05.724Z,84.30
2018-08-11T10:27:35.364Z,81.80
2018-08-11T10:30:06.026Z,78.70
2018-08-11T10:32:35.615Z,77.10
2018-08-11T10:35:05.678Z,79.50
2018-08-11T10:37:35.438Z,76.60
2018-08-11T10:40:06.607Z,68.40
2018-08-11T10:42:36.257Z,66.30
2018-08-11T10:45:05.902Z,67.30
2018-08-11T10:47:35.488Z,63.50
2018-08-11T10:50:05.862Z,65.20
2018-08-11T10:52:35.999Z,65.70
2018-08-11T10:55:05.748Z,62.80
2018-08-11T10:57:35.265Z,63.60
2018-08-11T11:00:06.511Z,63.90
2018-08-11T11:02:36.215Z,67.90
2018-08-11T11:05:05.873Z,65.90
2018-08-11T11:07:35.489Z,64.80
2018-08-11T11:10:05.327Z,66.00
2018-08-11T11:12:34.878Z,64.90
2018-08-11T11:15:04.606Z,62.50
2018-08-11T11:17:34.154Z,63.80
2018-08-11T11:20:03.900Z,63.80
2018-08-11T11:22:34.156Z,66.70
2018-08-11T11:25:03.917Z,60.80
2018-08-11T11:27:33.565Z,66.40
2018-08-11T11:30:03.354Z,63.20
2018-08-11T11:32:32.908Z,65.60
2018-08-11T11:35:02.536Z,63.10
2018-08-11T11:37:32.197Z,62.20
2018-08-11T11:40:01.841Z,60.60
2018-08-11T11:42:31.352Z,64.20
2018-08-11T11:45:01.013Z,58.70
2018-08-11T11:47:30.757Z,60.60
2018-08-11T11:50:00.389Z,63.10
2018-08-11T11:52:30.020Z,57.10
2018-08-11T11:54:59.819Z,57.70
2018-08-11T11:57:29.525Z,60.40
2018-08-11T11:59:59.222Z,58.10
2018-08-11T12:02:29.188Z,60.10
2018-08-11T12:04:58.998Z,63.30
2018-08-11T12:07:28.582Z,55.10
2018-08-11T12:09:58.223Z,57.80
2018-08-11T12:12:27.874Z,57.70
2018-08-11T12:14:58.030Z,55.50
2018-08-11T12:17:27.722Z,56.70
2018-08-11T12:19:57.317Z,52.40
2018-08-11T12:22:26.892Z,55.50
2018-08-11T12:24:56.491Z,53.60
2018-08-11T12:27:26.455Z,54.30
2018-08-11T12:29:56.073Z,54.70
2018-08-11T12:32:25.705Z,51.80
2018-08-11T12:34:55.428Z,50.40
2018-08-11T12:37:24.982Z,48.70
2018-08-11T12:39:54.580Z,50.00
2018-08-11T12:42:24.177Z,50.40
2018-08-11T12:44:53.802Z,50.90
2018-08-11T12:47:23.333Z,49.70
2018-08-11T12:49:53.018Z,49.80
2018-08-11T12:52:22.847Z,49.00
2018-08-11T12:54:52.525Z,48.60
2018-08-11T12:57:22.038Z,48.80
2018-08-11T12:59:51.629Z,46.80
2018-08-11T13:02:21.189Z,47.70
2018-08-11T13:04:50.724Z,48.20
2018-08-11T13:07:20.331Z,51.60
2018-08-11T13:09:50.096Z,47.70
2018-08-11T13:12:19.713Z,45.70
2018-08-11T13:14:49.306Z,47.30
2018-08-11T13:17:18.816Z,45.90
2018-08-11T13:19:48.459Z,44.20
2018-08-11T13:22:18.042Z,46.80
2018-08-11T13:24:47.664Z,46.60
2018-08-11T13:27:17.332Z,45.80
2018-08-11T13:29:46.972Z,44.50
2018-08-11T13:32:16.809Z,47.10
2018-08-11T13:34:46.476Z,46.50
2018-08-11T13:37:16.109Z,44.40
2018-08-11T13:39:49.704Z,44.70
2018-08-11T13:42:19.506Z,43.80
2018-08-11T13:44:49.308Z,44.70
2018-08-11T13:47:18.914Z,44.40
2018-08-11T13:49:48.566Z,43.80
2018-08-11T13:52:19.184Z,43.20
2018-08-11T13:54:48.780Z,42.20
2018-08-11T13:57:18.318Z,43.80
2018-08-11T13:59:48.029Z,41.90
2018-08-11T14:02:18.854Z,41.00
2018-08-11T14:04:49.114Z,43.40
2018-08-11T14:07:18.734Z,44.10
2018-08-11T14:09:48.331Z,43.20
2018-08-11T14:12:17.845Z,41.80
2018-08-11T14:14:47.494Z,44.20
2018-08-11T14:17:18.729Z,40.30
2018-08-11T14:19:48.307Z,39.80
2018-08-11T14:22:17.832Z,41.60
2018-08-11T14:24:47.454Z,40.30
2018-08-11T14:27:16.977Z,39.50
2018-08-11T14:29:46.670Z,37.90
2018-08-11T14:32:16.285Z,36.50
2018-08-11T14:34:46.057Z,36.80
2018-08-11T14:37:15.755Z,38.70
2018-08-11T14:39:45.503Z,38.60
2018-08-11T14:42:15.530Z,39.60
2018-08-11T14:44:45.236Z,39.00
2018-08-11T14:47:15.359Z,39.40
2018-08-11T14:49:45.533Z,40.60
2018-08-11T14:52:15.464Z,40.80
2018-08-11T14:54:45.381Z,40.80
2018-08-11T14:57:15.130Z,40.90
2018-08-11T14:59:44.724Z,39.10
2018-08-11T15:02:14.480Z,39.30
2018-08-11T15:04:44.246Z,40.20
2018-08-11T15:07:14.254Z,38.30
2018-08-11T15:09:43.893Z,41.40
2018-08-11T15:12:13.472Z,40.40
2018-08-11T15:14:44.064Z,38.40
2018-08-11T15:17:13.793Z,38.70
2018-08-11T15:19:43.577Z,38.10
2018-08-11T15:22:14.014Z,39.70
2018-08-11T15:24:43.645Z,42.60
2018-08-11T15:27:13.359Z,39.20
2018-08-11T15:29:43.124Z,39.80
2018-08-11T15:32:12.776Z,39.60
2018-08-11T15:34:42.505Z,38.20
2018-08-11T15:37:12.133Z,37.70
2018-08-11T15:39:41.898Z,39.20
2018-08-11T15:42:11.522Z,40.70
2018-08-11T15:44:41.113Z,41.00
2018-08-11T15:47:10.725Z,41.90
2018-08-11T15:49:40.485Z,41.30
2018-08-11T15:52:10.022Z,41.20
2018-08-11T15:54:39.819Z,41.30
2018-08-11T15:57:09.501Z,40.90
2018-08-11T15:59:39.287Z,42.30
2018-08-11T16:02:09.016Z,41.40
2018-08-11T16:04:38.837Z,41.50
2018-08-11T16:07:08.511Z,42.70
2018-08-11T16:09:38.159Z,44.20
2018-08-11T16:12:07.928Z,48.30
2018-08-11T16:14:37.463Z,47.40
2018-08-11T16:17:07.109Z,48.00
2018-08-11T16:19:36.822Z,53.20
2018-08-11T16:22:06.472Z,50.80
2018-08-11T16:24:36.116Z,52.10
2018-08-11T16:27:05.978Z,52.20
2018-08-11T16:29:35.694Z,52.30
2018-08-11T16:32:05.188Z,52.90
2018-08-11T16:34:34.836Z,53.80
2018-08-11T16:37:05.107Z,54.80
2018-08-11T16:39:34.777Z,55.90
2018-08-11T16:42:04.421Z,58.50
2018-08-11T16:44:34.201Z,57.30
2018-08-11T16:47:03.823Z,56.70
2018-08-11T16:49:34.831Z,56.70
2018-08-11T16:52:04.491Z,60.90
2018-08-11T16:54:34.108Z,62.10
2018-08-11T16:57:03.852Z,66.00
2018-08-11T16:59:33.908Z,65.50
2018-08-11T17:02:03.762Z,59.90
2018-08-11T17:04:33.702Z,61.60
2018-08-11T17:07:03.557Z,68.70
2018-08-11T17:09:33.196Z,64.90
2018-08-11T17:12:02.889Z,68.20
2018-08-11T17:14:32.449Z,68.10
2018-08-11T17:17:03.239Z,72.00
2018-08-11T17:19:32.802Z,69.00
2018-08-11T17:22:02.356Z,65.30
2018-08-11T17:24:31.976Z,63.10
2018-08-11T17:27:01.602Z,71.20
2018-08-11T17:29:31.129Z,67.80
2018-08-11T17:32:00.732Z,72.00
2018-08-11T17:34:30.357Z,66.60
2018-08-11T17:36:59.842Z,74.10
2018-08-11T17:39:29.541Z,73.20
2018-08-11T17:41:59.169Z,70.60
2018-08-11T17:44:28.678Z,70.20
2018-08-11T17:46:58.281Z,77.10
2018-08-11T17:49:27.975Z,70.50
2018-08-11T17:51:57.540Z,73.00
2018-08-11T17:54:27.322Z,71.20
2018-08-11T17:56:57.104Z,79.50
2018-08-11T17:59:26.882Z,79.60
2018-08-11T18:01:56.476Z,77.70
2018-08-11T18:04:27.975Z,77.80
2018-08-11T18:06:57.603Z,76.20
2018-08-11T18:09:27.333Z,76.20
2018-08-11T18:11:56.908Z,77.80
2018-08-11T18:14:26.475Z,77.20
2018-08-11T18:16:56.032Z,76.90
2018-08-11T18:19:25.711Z,81.00
2018-08-11T18:21:55.845Z,79.90
2018-08-11T18:24:25.454Z,81.20
2018-08-11T18:26:55.060Z,75.90
2018-08-11T18:29:24.767Z,77.40
2018-08-11T18:31:54.800Z,85.20
2018-08-11T18:34:24.506Z,86.00
2018-08-11T18:36:54.141Z,80.90
2018-08-11T18:39:23.883Z,81.00
2018-08-11T18:41:53.531Z,78.60
2018-08-11T18:44:23.120Z,75.90
2018-08-11T18:46:52.716Z,77.20
2018-08-11T18:49:22.345Z,77.20
2018-08-11T18:51:52.684Z,75.20
2018-08-11T18:54:22.916Z,82.50
2018-08-11T18:56:52.649Z,82.40
2018-08-11T18:59:22.321Z,78.60
2018-08-11T19:01:51.922Z,78.80
2018-08-11T19:04:22.553Z,85.30
2018-08-11T19:06:52.172Z,83.60
2018-08-11T19:09:22.365Z,84.70
2018-08-11T19:11:51.906Z,86.30
2018-08-11T19:14:21.496Z,81.90
2018-08-11T19:16:51.171Z,85.60
2018-08-11T19:19:20.880Z,79.90
2018-08-11T19:21:50.561Z,84.60
2018-08-11T19:24:20.531Z,90.80
2018-08-11T19:26:51.061Z,90.90
2018-08-11T19:29:20.651Z,87.50
2018-08-11T19:31:50.264Z,92.40
2018-08-11T19:34:19.964Z,89.70
2018-08-11T19:36:49.515Z,90.00
2018-08-11T19:39:19.179Z,92.20
2018-08-11T19:41:49.784Z,91.40
2018-08-11T19:44:19.504Z,91.20
2018-08-11T19:46:49.153Z,90.30
2018-08-11T19:49:18.865Z,90.60
2018-08-11T19:51:48.475Z,89.30
2018-08-11T19:54:18.147Z,93.00
2018-08-11T19:56:47.941Z,91.10
2018-08-11T19:59:17.632Z,92.30
2018-08-11T20:01:47.405Z,92.30
2018-08-11T20:04:17.048Z,93.80
2018-08-11T20:06:47.180Z,95.00
2018-08-11T20:09:16.836Z,95.90
2018-08-11T20:11:46.345Z,94.00
2018-08-11T20:14:15.955Z,93.70
2018-08-11T20:16:45.673Z,93.40
2018-08-11T20:19:15.589Z,95.80
2018-08-11T20:21:45.314Z,95.40
2018-08-11T20:24:14.962Z,95.30
2018-08-11T20:26:44.564Z,97.10
2018-08-11T20:29:15.352Z,97.40
2018-08-11T20:31:45.905Z,97.30
2018-08-11T20:34:15.918Z,98.30
2018-08-11T20:36:49.781Z,98.00
2018-08-11T20:39:19.905Z,99.90
2018-08-11T20:41:49.866Z,99.90
2018-08-11T20:44:20.448Z,99.90
2018-08-11T20:46:50.329Z,99.90
2018-08-11T20:49:20.185Z,99.90
2018-08-11T20:51:50.212Z,99.90
2018-08-11T20:54:20.129Z,99.90
2018-08-11T20:56:50.003Z,99.90
2018-08-11T20:59:22.852Z,99.90
2018-08-11T21:01:53.880Z,99.90
2018-08-11T21:04:23.791Z,99.90
2018-08-11T21:06:54.030Z,99.90
2018-08-11T21:09:23.908Z,99.90
2018-08-11T21:11:54.230Z,99.90
2018-08-11T21:14:26.792Z,99.90
2018-08-11T21:16:56.949Z,99.90
2018-08-11T21:19:26.738Z,99.90
2018-08-11T21:21:56.491Z,99.90
2018-08-11T21:24:26.530Z,99.90
2018-08-11T21:26:56.324Z,99.90
2018-08-11T21:29:26.335Z,99.90
2018-08-11T21:31:56.726Z,99.90
2018-08-11T21:34:26.685Z,99.90
2018-08-11T21:36:56.462Z,99.90
2018-08-11T21:39:30.756Z,99.90
2018-08-11T21:42:00.681Z,99.90
2018-08-11T21:44:30.663Z,99.90
2018-08-11T21:47:00.034Z,99.70
2018-08-11T21:49:29.485Z,99.90
2018-08-11T21:51:58.868Z,99.90
2018-08-11T21:54:28.299Z,99.90
2018-08-11T21:56:57.661Z,99.90
2018-08-11T21:59:28.121Z,99.90
2018-08-11T22:01:57.934Z,99.90
2018-08-11T22:04:34.248Z,99.90
2018-08-11T22:07:05.693Z,99.90
2018-08-11T22:09:35.286Z,99.90
2018-08-11T22:12:05.014Z,99.90
2018-08-11T22:14:34.446Z,99.90
2018-08-11T22:17:03.905Z,99.90
2018-08-11T22:19:33.995Z,99.90
2018-08-11T22:22:03.412Z,99.90
2018-08-11T22:24:32.830Z,99.90
2018-08-11T22:27:02.232Z,99.90
2018-08-11T22:29:31.627Z,99.90
2018-08-11T22:32:01.931Z,99.90
2018-08-11T22:34:31.331Z,99.90
2018-08-11T22:37:07.420Z,99.90
2018-08-11T22:39:36.999Z,99.90
2018-08-11T22:42:06.740Z,99.90
2018-08-11T22:44:36.113Z,99.90
2018-08-11T22:47:05.592Z,99.90
2018-08-11T22:49:35.018Z,99.90
2018-08-11T22:52:04.468Z,99.90
2018-08-11T22:54:33.873Z,99.90
2018-08-11T22:57:03.255Z,99.90
2018-08-11T22:59:32.635Z,99.90
2018-08-11T23:02:02.078Z,99.90
2018-08-11T23:04:31.605Z,99.90
2018-08-11T23:07:01.006Z,99.90
2018-08-11T23:09:30.554Z,99.90
2018-08-11T23:11:59.917Z,99.90
2018-08-11T23:14:29.332Z,99.90
2018-08-11T23:16:58.802Z,99.90
2018-08-11T23:19:28.312Z,99.90
2018-08-11T23:21:57.665Z,99.90
2018-08-11T23:24:27.097Z,99.90
2018-08-11T23:26:56.517Z,99.90
2018-08-11T23:29:26.003Z,99.90
2018-08-11T23:31:55.440Z,99.90
2018-08-11T23:34:24.839Z,99.90
2018-08-11T23:36:54.593Z,99.90
2018-08-11T23:39:24.099Z,99.90
2018-08-11T23:41:53.553Z,99.90
2018-08-11T23:44:23.020Z,99.90
2018-08-11T23:46:52.389Z,99.90
2018-08-11T23:49:21.891Z,99.90
2018-08-11T23:51:51.374Z,99.90
2018-08-11T23:54:20.738Z,99.90
2018-08-11T23:56:50.100Z,99.90
2018-08-11T23:59:19.475Z,99.90
